Time;durP1;ratioP1;P1;durP2;ratioP2;P2;SDS_P1;SDS_P2;PMS_P1;PMS_P2;Temp;Humidity;BMP_temperature;BMP_pressure;BME280_temperature;BME280_humidity;BME280_pressure;Samples;Min_cycle;Max_cycle;Signal;HPM_P1;HPM_P2
2021/06/14 00:00:53;;;;;;;4.73;1.70;;;;;;;15.31;77.87;99937.43;1738503;80;21785;-74
2021/06/14 00:03:20;;;;;;;2.70;1.73;;;;;;;15.24;77.65;99937.30;1734071;81;21758;-74
2021/06/14 00:05:46;;;;;;;3.13;2.00;;;;;;;15.22;77.53;99933.30;1772136;79;21755;-74
2021/06/14 00:08:17;;;;;;;3.43;1.67;;;;;;;15.18;77.50;99930.42;1773392;79;21692;-75
2021/06/14 00:10:48;;;;;;;2.33;1.70;;;;;;;15.18;77.50;99930.42;1771590;79;22144;-75
2021/06/14 00:13:15;;;;;;;3.53;1.97;;;;;;;15.17;77.70;99924.81;1720602;81;22446;-75
2021/06/14 00:15:43;;;;;;;3.60;1.80;;;;;;;15.13;77.81;99921.11;1739560;80;21721;-75
2021/06/14 00:18:10;;;;;;;3.57;1.90;;;;;;;15.13;77.73;99919.77;1743060;81;21707;-75
2021/06/14 00:20:37;;;;;;;3.87;1.90;;;;;;;15.12;77.84;99914.15;1749003;81;21723;-75
2021/06/14 00:23:09;;;;;;;3.80;1.83;;;;;;;15.13;77.94;99913.05;1734783;81;21677;-74
2021/06/14 00:25:36;;;;;;;2.60;1.82;;;;;;;15.10;78.19;99921.72;1735197;81;21782;-76
2021/06/14 00:28:04;;;;;;;4.30;1.93;;;;;;;15.10;78.19;99921.72;1739463;81;21065;-76
2021/06/14 00:30:37;;;;;;;3.60;1.90;;;;;;;15.10;78.04;99924.41;1751265;81;22245;-74
2021/06/14 00:33:05;;;;;;;2.77;1.70;;;;;;;15.11;77.96;99931.39;1742678;81;21739;-75
2021/06/14 00:35:32;;;;;;;3.90;1.80;;;;;;;15.11;77.72;99924.67;1734232;81;22203;-74
2021/06/14 00:37:58;;;;;;;3.40;1.80;;;;;;;15.08;77.23;99919.89;1746279;81;21738;-75
2021/06/14 00:40:26;;;;;;;3.87;1.80;;;;;;;15.09;76.98;99922.03;1766449;81;21825;-74
2021/06/14 00:42:54;;;;;;;3.87;1.80;;;;;;;15.09;76.98;99922.03;1751393;81;21781;-75
2021/06/14 00:45:25;;;;;;;4.10;2.00;;;;;;;15.06;76.73;99916.70;1736835;81;21753;-75
2021/06/14 00:47:52;;;;;;;3.60;1.72;;;;;;;15.06;76.73;99916.70;1734623;81;21732;-75
2021/06/14 00:50:24;;;;;;;2.63;1.67;;;;;;;15.06;77.14;99922.08;1760667;81;20999;-74
2021/06/14 00:52:51;;;;;;;2.70;1.80;;;;;;;15.05;77.25;99909.73;1747424;81;21758;-75
2021/06/14 00:55:18;;;;;;;3.83;2.10;;;;;;;15.07;77.48;99916.14;1740873;81;21751;-74
2021/06/14 00:57:45;;;;;;;3.43;1.87;;;;;;;15.07;77.64;99912.94;1734564;81;21745;-74
2021/06/14 01:00:15;;;;;;;4.17;2.17;;;;;;;15.08;77.80;99916.41;1736344;81;21750;-74
2021/06/14 01:02:43;;;;;;;2.43;1.70;;;;;;;15.05;78.24;99915.67;1750057;81;21793;-74
2021/06/14 01:05:12;;;;;;;4.10;2.13;;;;;;;15.01;78.55;99913.58;1743283;81;21809;-72
2021/06/14 01:07:40;;;;;;;3.67;2.00;;;;;;;14.97;78.93;99906.41;1743990;81;21731;-73
2021/06/14 01:10:07;;;;;;;3.40;2.10;;;;;;;14.95;79.32;99904.03;1735925;81;21712;-73
2021/06/14 01:12:37;;;;;;;3.70;2.30;;;;;;;14.94;79.82;99911.06;1731113;82;21853;-74
2021/06/14 01:15:14;;;;;;;3.27;2.17;;;;;;;14.91;80.32;99913.02;1742491;80;22249;-73
2021/06/14 01:17:59;;;;;;;4.13;2.30;;;;;;;14.89;80.64;99907.13;1733099;81;22363;-74
2021/06/14 01:20:58;;;;;;;5.30;2.47;;;;;;;14.85;81.11;99907.48;1710280;81;22358;-74
2021/06/14 01:24:09;;;;;;;4.10;2.20;;;;;;;14.71;81.58;99908.30;1711569;81;21777;-74
2021/06/14 01:26:57;;;;;;;4.60;2.43;;;;;;;14.71;81.58;99908.30;1730765;82;21841;-73
2021/06/14 01:29:24;;;;;;;4.37;2.47;;;;;;;14.63;81.87;99918.95;1734058;81;22213;-74
2021/06/14 01:31:53;;;;;;;4.47;2.63;;;;;;;14.63;81.87;99918.95;1709645;81;22211;-74
2021/06/14 01:34:24;;;;;;;4.77;2.60;;;;;;;14.61;82.23;99917.09;1743330;81;22449;-75
2021/06/14 01:36:49;;;;;;;4.27;2.20;;;;;;;14.60;82.74;99924.37;1732033;81;21729;-75
2021/06/14 01:39:17;;;;;;;3.90;2.70;;;;;;;14.60;82.74;99924.37;1681660;81;21588;-75
2021/06/14 01:41:44;;;;;;;3.53;2.30;;;;;;;14.62;82.55;99928.12;1731810;81;21452;-75
2021/06/14 01:44:12;;;;;;;3.33;2.17;;;;;;;14.63;82.62;99929.14;1732890;81;21782;-74
2021/06/14 01:46:40;;;;;;;3.93;2.30;;;;;;;14.63;82.53;99934.52;1731767;81;21555;-74
2021/06/14 01:49:08;;;;;;;5.00;2.30;;;;;;;14.57;82.30;99937.05;1770325;79;21799;-74
2021/06/14 01:51:36;;;;;;;3.10;2.43;;;;;;;14.57;82.30;99937.05;1704466;82;21728;-74
2021/06/14 01:54:09;;;;;;;3.43;2.40;;;;;;;14.58;82.32;99946.73;1731351;81;21538;-75
2021/06/14 01:56:49;;;;;;;5.42;2.62;;;;;;;14.60;82.35;99949.90;1718048;80;21761;-75
2021/06/14 01:59:28;;;;;;;4.35;2.47;;;;;;;14.62;82.28;99946.93;1735862;81;21131;-74
2021/06/14 02:01:55;;;;;;;3.57;2.47;;;;;;;14.63;81.76;99956.58;1647515;82;21149;-74
2021/06/14 02:04:23;;;;;;;3.87;2.80;;;;;;;14.63;81.76;99956.58;1738179;80;21520;-75
2021/06/14 02:06:57;;;;;;;4.30;2.43;;;;;;;14.63;82.29;99947.96;1732328;81;21476;-74
2021/06/14 02:09:25;;;;;;;3.37;2.20;;;;;;;14.63;82.29;99947.96;1734794;81;21514;-75
2021/06/14 02:11:59;;;;;;;3.40;2.40;;;;;;;14.65;81.95;99948.47;1748251;80;21891;-75
2021/06/14 02:14:29;;;;;;;3.53;2.63;;;;;;;14.70;81.67;99954.28;1711991;81;21757;-74
2021/06/14 02:16:58;;;;;;;3.43;2.57;;;;;;;14.70;81.67;99954.28;1771231;79;21519;-75
2021/06/14 02:19:25;;;;;;;3.97;2.40;;;;;;;14.71;81.66;99948.63;1762741;79;21516;-75
2021/06/14 02:21:52;;;;;;;4.90;2.70;;;;;;;14.78;81.46;99955.73;1771795;79;22164;-75
2021/06/14 02:24:19;;;;;;;3.60;2.53;;;;;;;14.81;81.21;99953.00;1795739;79;21504;-74
2021/06/14 02:26:46;;;;;;;5.90;3.07;;;;;;;14.81;81.21;99953.00;1723130;81;22281;-74
2021/06/14 02:29:16;;;;;;;3.70;2.50;;;;;;;14.85;81.06;99958.02;1746533;81;21703;-74
2021/06/14 02:31:43;;;;;;;3.70;2.67;;;;;;;14.90;80.94;99960.59;1747473;81;21545;-74
2021/06/14 02:34:11;;;;;;;4.93;2.90;;;;;;;14.95;80.75;99956.47;1756480;81;21747;-74
2021/06/14 02:36:38;;;;;;;5.30;2.77;;;;;;;15.02;80.38;99958.75;1721081;81;21748;-75
2021/06/14 02:39:16;;;;;;;3.20;2.27;;;;;;;15.06;80.03;99961.63;1730818;81;22077;-76
2021/06/14 02:41:44;;;;;;;5.27;2.90;;;;;;;15.09;79.81;99971.79;1749516;81;21732;-74
2021/06/14 02:44:11;;;;;;;4.87;3.10;;;;;;;15.12;79.65;99972.53;1702966;82;22072;-76
2021/06/14 02:46:41;;;;;;;3.10;2.40;;;;;;;15.12;79.35;99971.19;1739636;81;21688;-76
2021/06/14 02:49:11;;;;;;;4.40;2.80;;;;;;;15.15;79.40;99966.55;1742225;81;21730;-74
2021/06/14 02:51:38;;;;;;;3.87;2.63;;;;;;;15.18;79.31;99968.09;1731823;81;21735;-75
2021/06/14 02:54:09;;;;;;;4.70;3.07;;;;;;;15.21;79.04;99968.04;1747245;82;21783;-74
2021/06/14 02:56:38;;;;;;;5.63;3.03;;;;;;;15.22;78.89;99971.77;1737283;81;21924;-74
2021/06/14 02:59:12;;;;;;;5.40;2.80;;;;;;;15.25;78.76;99975.19;1734307;81;21731;-75
2021/06/14 03:01:39;;;;;;;6.87;2.87;;;;;;;15.29;78.45;99970.56;1736213;81;21730;-74
2021/06/14 03:04:07;;;;;;;3.63;2.50;;;;;;;15.33;78.50;99972.33;1735203;81;21691;-75
2021/06/14 03:06:35;;;;;;;5.43;2.60;;;;;;;15.36;78.42;99973.62;1733559;81;21734;-75
2021/06/14 03:09:05;;;;;;;3.80;2.90;;;;;;;15.36;78.12;99970.94;1706961;81;22124;-75
2021/06/14 03:11:33;;;;;;;3.57;2.30;;;;;;;15.39;78.00;99973.02;1746436;81;21769;-76
2021/06/14 03:14:03;;;;;;;3.73;2.50;;;;;;;15.43;77.93;99975.34;1771659;79;22133;-75
2021/06/14 03:16:31;;;;;;;4.10;2.70;;;;;;;15.46;77.69;99980.95;1718990;81;22230;-75
2021/06/14 03:18:59;;;;;;;3.43;2.43;;;;;;;15.52;77.62;99974.88;1774636;79;22235;-74
2021/06/14 03:21:29;;;;;;;4.17;2.80;;;;;;;15.60;77.59;99976.86;1771552;79;21778;-75
2021/06/14 03:23:57;;;;;;;3.72;2.83;;;;;;;15.68;77.30;99981.53;1805418;79;21752;-74
2021/06/14 03:26:29;;;;;;;4.03;2.60;;;;;;;15.76;76.74;99975.17;1713853;81;21690;-74
2021/06/14 03:28:56;;;;;;;5.97;2.80;;;;;;;15.85;76.45;99978.73;1706498;82;21820;-74
2021/06/14 03:31:23;;;;;;;4.87;2.30;;;;;;;15.94;76.17;99980.94;1736817;81;21061;-75
2021/06/14 03:33:51;;;;;;;3.90;2.57;;;;;;;16.02;75.44;99982.88;1712064;82;21480;-74
2021/06/14 03:36:20;;;;;;;4.70;2.60;;;;;;;16.08;75.43;99988.39;1735345;81;21120;-74
2021/06/14 03:38:47;;;;;;;5.10;2.60;;;;;;;16.14;74.93;99985.03;1740054;80;21119;-74
2021/06/14 03:41:14;;;;;;;4.70;2.53;;;;;;;16.16;74.82;99990.91;1718488;80;20991;-74
2021/06/14 03:43:41;;;;;;;4.53;2.73;;;;;;;16.12;74.31;99990.73;1717068;81;21058;-75
2021/06/14 03:46:08;;;;;;;4.87;2.77;;;;;;;16.10;74.56;99994.27;1741228;81;21157;-75
2021/06/14 03:48:35;;;;;;;4.30;2.10;;;;;;;16.14;74.64;100001.98;1735693;81;21035;-75
2021/06/14 03:51:02;;;;;;;3.40;2.37;;;;;;;16.21;74.82;100004.24;1715688;81;21120;-74
2021/06/14 03:53:32;;;;;;;3.57;2.70;;;;;;;16.31;74.34;99995.11;1736672;81;21033;-75
2021/06/14 03:56:07;;;;;;;4.77;2.60;;;;;;;16.39;74.03;99995.72;1779002;79;21544;-76
2021/06/14 03:58:35;;;;;;;5.03;2.40;;;;;;;16.40;73.70;100002.69;1721515;81;21549;-75
2021/06/14 04:01:01;;;;;;;3.80;2.23;;;;;;;16.39;73.73;100007.84;1707317;82;21106;-75
2021/06/14 04:03:29;;;;;;;4.80;2.43;;;;;;;16.41;73.54;99999.67;1711423;82;21184;-75
2021/06/14 04:05:59;;;;;;;3.50;2.30;;;;;;;16.46;73.59;100009.55;1780091;79;21093;-75
2021/06/14 04:08:36;;;;;;;4.60;2.40;;;;;;;16.52;73.57;100005.61;1737844;81;21138;-73
2021/06/14 04:11:04;;;;;;;4.03;2.60;;;;;;;16.54;73.39;100006.08;1737327;81;21168;-74
2021/06/14 04:13:31;;;;;;;4.73;2.33;;;;;;;16.58;73.24;100011.64;1773404;79;21036;-75
2021/06/14 04:15:58;;;;;;;4.50;2.30;;;;;;;16.65;73.46;100006.07;1768472;79;21645;-74
2021/06/14 04:18:25;;;;;;;4.60;2.30;;;;;;;16.77;73.46;100008.75;1770786;79;21069;-74
2021/06/14 04:20:52;;;;;;;3.70;2.43;;;;;;;16.88;72.74;100004.69;1774581;79;21100;-74
2021/06/14 04:23:19;;;;;;;2.93;1.93;;;;;;;16.93;72.33;100005.88;1766283;79;21097;-74
2021/06/14 04:25:47;;;;;;;4.20;2.20;;;;;;;16.98;72.43;100013.84;1773324;79;21033;-74
2021/06/14 04:28:13;;;;;;;4.43;2.33;;;;;;;17.08;72.08;100007.36;1707181;82;21124;-74
2021/06/14 04:30:40;;;;;;;5.10;2.50;;;;;;;17.20;71.77;100017.53;1734860;81;21086;-74
2021/06/14 04:33:08;;;;;;;3.83;2.20;;;;;;;17.28;71.33;100025.66;1780448;79;21592;-73
2021/06/14 04:35:35;;;;;;;3.07;2.17;;;;;;;17.40;71.29;100027.73;1776124;79;21586;-74
2021/06/14 04:38:02;;;;;;;5.23;2.47;;;;;;;17.53;70.70;100036.80;1782946;79;21387;-74
2021/06/14 04:40:29;;;;;;;3.83;2.63;;;;;;;17.63;70.03;100033.80;1722044;83;21151;-75
2021/06/14 04:42:55;;;;;;;3.70;2.20;;;;;;;17.61;70.07;100050.89;1724353;81;21726;-73
2021/06/14 04:45:23;;;;;;;4.30;2.33;;;;;;;17.65;70.25;100042.38;1704325;84;22161;-74
2021/06/14 04:47:50;;;;;;;4.00;2.40;;;;;;;17.70;69.97;100047.64;1734171;81;21071;-74
2021/06/14 04:50:17;;;;;;;3.50;2.40;;;;;;;17.68;70.21;100055.81;1775742;79;21047;-74
2021/06/14 04:52:43;;;;;;;5.40;2.50;;;;;;;17.60;70.24;100065.48;1771568;79;21151;-74
2021/06/14 04:55:11;;;;;;;2.80;1.87;;;;;;;17.57;70.54;100069.62;1767996;79;21100;-75
2021/06/14 04:57:38;;;;;;;3.40;2.40;;;;;;;17.62;70.85;100067.87;1735241;81;20989;-74
2021/06/14 05:00:07;;;;;;;4.17;2.20;;;;;;;17.65;70.60;100068.60;1774949;79;21045;-74
2021/06/14 05:02:35;;;;;;;4.10;2.43;;;;;;;17.68;70.59;100069.32;1704102;82;21188;-74
2021/06/14 05:05:04;;;;;;;3.80;2.33;;;;;;;17.70;70.74;100071.13;1747219;80;21162;-75
2021/06/14 05:07:30;;;;;;;4.03;2.30;;;;;;;17.75;70.91;100070.43;1736602;81;20934;-73
2021/06/14 05:09:57;;;;;;;6.00;2.70;;;;;;;17.83;71.00;100076.97;1741064;81;21545;-76
2021/06/14 05:12:24;;;;;;;4.20;2.43;;;;;;;17.85;70.75;100073.41;1736041;82;21644;-74
2021/06/14 05:14:51;;;;;;;3.30;2.40;;;;;;;17.85;71.08;100078.02;1755094;81;21049;-73
2021/06/14 05:17:18;;;;;;;3.60;2.43;;;;;;;17.91;71.39;100072.70;1770501;79;21017;-73
2021/06/14 05:19:45;;;;;;;3.43;2.40;;;;;;;17.96;71.30;100075.23;1766708;79;21007;-73
2021/06/14 05:22:12;;;;;;;5.13;2.80;;;;;;;18.05;71.52;100076.83;1773251;79;21080;-73
2021/06/14 05:24:40;;;;;;;3.70;3.00;;;;;;;18.17;71.27;100076.20;1704533;82;21073;-73
2021/06/14 05:27:08;;;;;;;4.30;2.77;;;;;;;18.22;71.14;100071.95;1751166;80;21069;-74
2021/06/14 05:29:35;;;;;;;4.20;3.27;;;;;;;18.25;71.08;100071.88;1739228;80;21113;-74
2021/06/14 05:32:02;;;;;;;4.70;3.40;;;;;;;18.24;70.90;100075.71;1747774;80;21485;-74
2021/06/14 05:34:29;;;;;;;4.83;2.90;;;;;;;18.21;70.90;100081.19;1708981;82;21057;-73
2021/06/14 05:36:56;;;;;;;4.70;2.90;;;;;;;18.19;71.45;100085.32;1704554;82;21102;-74
2021/06/14 05:39:23;;;;;;;4.50;3.40;;;;;;;18.24;71.71;100080.55;1741788;80;21046;-73
2021/06/14 05:41:50;;;;;;;4.50;2.90;;;;;;;18.34;71.44;100079.99;1737584;80;21095;-74
2021/06/14 05:44:17;;;;;;;4.37;3.07;;;;;;;18.46;71.29;100086.34;1732469;81;21014;-73
2021/06/14 05:46:45;;;;;;;4.07;3.10;;;;;;;18.65;71.10;100094.07;1774557;79;21030;-74
2021/06/14 05:49:12;;;;;;;5.30;2.70;;;;;;;18.78;70.64;100100.44;1732903;81;22186;-74
2021/06/14 05:51:39;;;;;;;6.23;3.53;;;;;;;18.82;70.40;100097.34;1732673;81;21081;-74
2021/06/14 05:54:06;;;;;;;4.47;2.90;;;;;;;18.82;70.52;100106.81;1737453;81;21113;-74
2021/06/14 05:56:33;;;;;;;5.00;2.90;;;;;;;18.84;70.39;100105.91;1734329;81;21089;-74
2021/06/14 05:59:00;;;;;;;4.13;2.67;;;;;;;18.92;70.55;100111.05;1740816;80;21061;-73
2021/06/14 06:01:29;;;;;;;7.43;3.23;;;;;;;19.06;70.26;100121.70;1734868;81;21553;-74
2021/06/14 06:03:56;;;;;;;3.97;2.83;;;;;;;19.13;69.69;100113.30;1743363;80;21054;-72
2021/06/14 06:06:22;;;;;;;4.37;2.80;;;;;;;19.30;70.02;100118.41;1724198;82;21128;-73
2021/06/14 06:08:52;;;;;;;5.97;3.00;;;;;;;19.51;69.95;100113.81;1771666;79;21082;-74
2021/06/14 06:11:18;;;;;;;3.73;2.97;;;;;;;19.71;69.00;100125.05;1773534;79;21111;-72
2021/06/14 06:13:47;;;;;;;4.00;2.83;;;;;;;19.80;68.32;100125.22;1762456;79;21049;-72
2021/06/14 06:16:14;;;;;;;3.60;2.90;;;;;;;19.84;67.40;100128.88;1751096;79;21057;-72
2021/06/14 06:18:40;;;;;;;3.73;2.90;;;;;;;19.80;66.89;100126.58;1743146;81;21777;-74
2021/06/14 06:21:07;;;;;;;3.60;2.90;;;;;;;19.74;66.83;100126.53;1738331;81;21579;-72
2021/06/14 06:23:34;;;;;;;3.80;2.73;;;;;;;19.75;67.26;100127.35;1739865;80;21088;-72
2021/06/14 06:26:01;;;;;;;6.40;3.10;;;;;;;19.83;67.64;100125.92;1784741;79;21065;-74
2021/06/14 06:28:28;;;;;;;4.17;2.60;;;;;;;20.02;67.78;100132.25;1771618;79;21042;-73
2021/06/14 06:30:54;;;;;;;4.97;3.50;;;;;;;20.24;66.82;100131.13;1741941;80;21151;-73
2021/06/14 06:33:21;;;;;;;4.70;3.37;;;;;;;20.41;66.23;100138.89;1774540;79;21058;-72
2021/06/14 06:35:48;;;;;;;4.10;3.20;;;;;;;20.49;65.87;100132.00;1734252;81;20970;-72
2021/06/14 06:38:15;;;;;;;4.67;3.27;;;;;;;20.49;66.13;100133.93;1733068;81;21110;-74
2021/06/14 06:40:41;;;;;;;3.83;3.03;;;;;;;20.56;66.10;100136.35;1738018;81;21053;-72
2021/06/14 06:43:08;;;;;;;4.93;3.10;;;;;;;20.55;65.72;100132.06;1740360;80;21160;-73
2021/06/14 06:45:35;;;;;;;4.90;3.10;;;;;;;20.56;65.90;100137.70;1733988;81;21081;-75
2021/06/14 06:48:03;;;;;;;6.63;3.10;;;;;;;20.65;65.78;100138.99;1704520;82;21059;-74
2021/06/14 06:50:30;;;;;;;3.60;2.53;;;;;;;20.77;65.68;100140.39;1739096;81;21085;-73
2021/06/14 06:52:56;;;;;;;4.27;2.70;;;;;;;20.96;65.20;100141.23;1707050;82;21127;-76
2021/06/14 06:55:23;;;;;;;4.90;3.03;;;;;;;21.15;64.44;100133.09;1741010;80;21150;-76
2021/06/14 06:57:50;;;;;;;4.83;3.00;;;;;;;21.18;63.59;100146.00;1745219;81;21034;-76
2021/06/14 07:00:18;;;;;;;5.77;3.23;;;;;;;;;;1740159;81;21044;-75
2021/06/14 07:02:45;;;;;;;4.07;3.10;;;;;;;21.09;63.88;100148.80;1732075;81;21082;-77
2021/06/14 07:05:12;;;;;;;5.57;3.23;;;;;;;21.11;63.77;100149.27;1738648;81;21105;-75
2021/06/14 07:07:39;;;;;;;4.63;2.93;;;;;;;21.18;63.68;100152.22;1735326;81;21090;-76
2021/06/14 07:10:07;;;;;;;4.87;3.20;;;;;;;21.28;63.83;100155.84;1739320;81;21090;-77
2021/06/14 07:12:34;;;;;;;4.23;2.87;;;;;;;21.40;64.08;100161.11;1736057;81;20990;-77
2021/06/14 07:15:01;;;;;;;5.87;3.40;;;;;;;21.47;63.28;100166.77;1742243;81;21020;-75
2021/06/14 07:17:28;;;;;;;4.47;3.40;;;;;;;21.53;63.36;100166.19;1746083;80;21029;-74
2021/06/14 07:19:54;;;;;;;4.53;3.13;;;;;;;21.58;62.94;100163.02;1730072;80;21091;-76
2021/06/14 07:22:21;;;;;;;5.37;3.63;;;;;;;21.63;62.99;100156.80;1738734;81;21093;-77
2021/06/14 07:24:48;;;;;;;3.70;3.00;;;;;;;21.64;62.87;100157.01;1746219;81;21172;-75
2021/06/14 07:27:15;;;;;;;4.83;3.50;;;;;;;21.52;63.17;100165.19;1740547;81;21120;-75
2021/06/14 07:29:41;;;;;;;4.50;3.33;;;;;;;21.49;63.15;100168.02;1778519;79;21455;-77
2021/06/14 07:32:09;;;;;;;3.70;2.80;;;;;;;21.52;62.90;100169.27;1775346;79;21815;-77
2021/06/14 07:34:36;;;;;;;3.90;3.00;;;;;;;21.54;62.76;100169.70;1779531;79;21500;-78
2021/06/14 07:37:03;;;;;;;4.80;3.40;;;;;;;21.58;63.17;100177.96;1735982;80;21571;-76
2021/06/14 07:39:30;;;;;;;6.53;3.50;;;;;;;21.61;62.93;100184.87;1732636;81;21049;-78
2021/06/14 07:41:56;;;;;;;4.73;3.40;;;;;;;21.62;63.68;100185.11;1703228;82;21066;-73
2021/06/14 07:44:23;;;;;;;3.63;3.07;;;;;;;21.70;63.89;100186.13;1739565;82;21116;-73
2021/06/14 07:46:50;;;;;;;3.53;2.70;;;;;;;21.77;63.33;100185.77;1741203;80;21052;-79
2021/06/14 07:49:16;;;;;;;5.17;2.90;;;;;;;21.82;62.93;100189.41;1740053;80;21588;-81
2021/06/14 07:51:44;;;;;;;3.80;2.67;;;;;;;21.89;63.02;100189.05;1742611;80;21663;-81
2021/06/14 07:54:10;;;;;;;3.73;2.57;;;;;;;22.00;62.50;100181.20;1698981;83;21289;-82
2021/06/14 07:56:43;;;;;;;3.90;3.00;;;;;;;22.16;62.61;100184.05;1710187;82;22096;-82
2021/06/14 07:59:07;;;;;;;3.17;2.60;;;;;;;22.23;61.93;100179.59;1728944;80;21077;-83
2021/06/14 08:01:34;;;;;;;6.73;3.20;;;;;;;22.25;61.84;100183.34;1776878;79;21687;-85
2021/06/14 08:04:01;;;;;;;4.50;2.57;;;;;;;22.27;61.40;100185.13;1737166;81;21555;-82
2021/06/14 08:06:28;;;;;;;4.73;2.67;;;;;;;22.31;60.87;100191.49;1737792;80;21043;-81
2021/06/14 08:08:56;;;;;;;3.90;2.83;;;;;;;22.33;61.61;100185.69;1774162;79;21099;-85
2021/06/14 08:11:24;;;;;;;5.47;3.50;;;;;;;22.41;62.33;100197.81;1772047;79;21029;-73
2021/06/14 08:13:51;;;;;;;3.57;2.73;;;;;;;22.58;62.23;100195.94;1777567;79;21470;-74
2021/06/14 08:16:17;;;;;;;5.07;3.10;;;;;;;22.79;61.04;100186.97;1775635;79;21069;-74
2021/06/14 08:26:26;;;;;;;5.30;2.77;;;;;;;23.18;60.32;100211.19;1783157;79;21029;-73
2021/06/14 08:28:53;;;;;;;5.30;3.37;;;;;;;23.26;60.00;100220.89;1771741;79;21100;-74
2021/06/14 08:31:21;;;;;;;3.50;2.70;;;;;;;23.35;59.73;100218.80;1772189;79;21096;-74
2021/06/14 08:33:48;;;;;;;4.43;2.60;;;;;;;23.51;58.64;100220.95;1783326;79;21046;-73
2021/06/14 08:36:15;;;;;;;5.97;3.10;;;;;;;23.62;59.05;100222.56;1781439;79;21136;-73
2021/06/14 08:38:42;;;;;;;3.40;2.53;;;;;;;23.73;58.09;100229.69;1779401;79;21042;-73
2021/06/14 08:41:09;;;;;;;4.43;2.97;;;;;;;23.74;57.99;100232.63;1781122;79;21084;-75
2021/06/14 08:43:35;;;;;;;4.30;2.90;;;;;;;23.76;58.33;100237.16;1779237;79;21124;-76
2021/06/14 08:46:02;;;;;;;4.83;2.70;;;;;;;23.94;58.59;100242.45;1777667;79;21501;-76
2021/06/14 08:48:29;;;;;;;3.53;2.40;;;;;;;24.09;58.06;100246.30;1754944;79;21025;-73
2021/06/14 08:50:56;;;;;;;3.70;2.70;;;;;;;24.20;57.98;100243.80;1742606;79;21057;-73
2021/06/14 08:53:23;;;;;;;3.63;2.60;;;;;;;24.26;57.54;100241.02;1772742;79;21685;-73
2021/06/14 08:55:50;;;;;;;3.83;2.30;;;;;;;24.33;56.88;100241.16;1784166;79;21042;-72
2021/06/14 08:58:18;;;;;;;3.33;2.40;;;;;;;24.48;56.72;100243.63;1781834;79;21645;-73
2021/06/14 09:00:49;;;;;;;4.60;2.30;;;;;;;24.61;55.84;100245.08;1776194;79;21624;-73
2021/06/14 09:03:18;;;;;;;5.10;2.37;;;;;;;24.63;53.53;100244.15;1739103;80;21085;-74
2021/06/14 09:05:44;;;;;;;2.50;2.03;;;;;;;24.63;53.58;100243.36;1739640;80;21448;-72
2021/06/14 09:08:11;;;;;;;3.30;2.50;;;;;;;24.72;54.06;100246.67;1742645;81;21026;-74
2021/06/14 09:10:40;;;;;;;2.63;1.93;;;;;;;24.87;54.85;100253.98;1740238;81;21593;-72
2021/06/14 09:13:16;;;;;;;2.90;1.90;;;;;;;24.96;54.09;100248.30;1779766;79;21057;-71
2021/06/14 09:15:46;;;;;;;4.13;2.13;;;;;;;25.17;55.25;100258.85;1739893;82;21642;-74
2021/06/14 09:18:21;;;;;;;3.27;2.30;;;;;;;25.46;54.87;100254.09;1782450;79;21030;-74
2021/06/14 09:21:09;;;;;;;3.00;2.00;;;;;;;25.56;51.86;100260.12;1760083;79;21025;-75
2021/06/14 09:23:51;;;;;;;2.87;1.93;;;;;;;25.51;51.54;100258.48;1779122;79;21147;-73
2021/06/14 09:26:32;;;;;;;;;;;;;;;25.60;51.84;100265.06;1737041;81;21021;-74
2021/06/14 09:29:09;;;;;;;3.33;2.27;;;;;;;25.69;51.92;100261.50;1740368;81;20199;-74
2021/06/14 09:31:58;;;;;;;3.20;2.40;;;;;;;25.53;51.46;100260.84;1780477;79;21001;-72
2021/06/14 09:34:39;;;;;;;6.12;2.47;;;;;;;25.49;52.78;100267.04;1775862;79;21044;-72
2021/06/14 09:37:08;;;;;;;3.70;2.10;;;;;;;25.62;52.37;100260.81;1785110;79;21084;-73
2021/06/14 09:39:38;;;;;;;3.50;2.40;;;;;;;25.65;51.84;100264.77;1781569;79;21559;-73
2021/06/14 09:42:26;;;;;;;2.42;1.90;;;;;;;25.62;51.43;100262.76;1776810;79;21049;-73
2021/06/14 09:44:54;;;;;;;4.53;2.20;;;;;;;25.64;52.10;100262.61;1785677;79;21061;-74
2021/06/14 09:47:21;;;;;;;2.93;2.30;;;;;;;25.61;49.86;100262.56;1777176;79;21097;-73
2021/06/14 09:49:59;;;;;;;2.50;2.00;;;;;;;25.50;51.55;100263.17;1774110;79;21165;-74
2021/06/14 09:52:25;;;;;;;3.57;2.20;;;;;;;25.52;51.89;100265.53;1785464;79;21521;-72
2021/06/14 09:54:52;;;;;;;3.73;2.10;;;;;;;25.62;51.27;100270.38;1776532;79;21048;-74
2021/06/14 09:57:27;;;;;;;2.77;1.80;;;;;;;25.71;50.29;100263.30;1784741;79;21017;-73
2021/06/14 09:59:58;;;;;;;2.57;2.07;;;;;;;25.82;49.58;100273.07;1763908;79;21116;-73
2021/06/14 10:02:24;;;;;;;3.50;2.10;;;;;;;25.79;50.85;100269.09;1769313;79;21125;-74
2021/06/14 10:04:52;;;;;;;3.33;2.03;;;;;;;25.73;49.84;100268.63;1704157;82;21087;-72
2021/06/14 10:07:22;;;;;;;2.70;1.90;;;;;;;25.70;51.40;100270.73;1778361;79;21197;-72
2021/06/14 10:09:52;;;;;;;2.83;1.90;;;;;;;25.80;50.86;100271.23;1732226;81;21504;-73
2021/06/14 10:12:30;;;;;;;3.43;1.90;;;;;;;25.96;51.15;100272.73;1779973;79;21085;-73
2021/06/14 10:15:03;;;;;;;4.37;2.40;;;;;;;26.08;50.16;100266.23;1783122;79;21761;-72
2021/06/14 10:17:41;;;;;;;3.00;2.10;;;;;;;26.01;48.90;100273.56;1779763;79;21024;-74
2021/06/14 10:20:18;;;;;;;3.33;2.07;;;;;;;25.82;49.63;100277.17;1774120;79;21593;-73
2021/06/14 10:22:46;;;;;;;3.00;2.10;;;;;;;25.71;51.42;100275.03;1775871;79;21089;-73
2021/06/14 10:25:15;;;;;;;3.27;2.20;;;;;;;25.71;50.69;100270.14;1774303;79;21041;-74
2021/06/14 10:27:41;;;;;;;3.07;1.87;;;;;;;25.75;49.47;100269.62;1790583;79;21089;-74
2021/06/14 10:30:11;;;;;;;4.73;2.20;;;;;;;25.68;50.23;100264.82;1775746;79;21017;-74
2021/06/14 10:32:39;;;;;;;3.40;2.40;;;;;;;25.62;50.97;100272.34;1781172;79;21036;-74
2021/06/14 10:35:07;;;;;;;2.93;2.13;;;;;;;25.49;50.18;100267.63;1774900;79;21664;-74
2021/06/14 10:37:49;;;;;;;2.87;2.07;;;;;;;25.38;50.58;100274.87;1725061;81;21567;-74
2021/06/14 10:40:23;;;;;;;3.62;2.10;;;;;;;25.30;50.36;100281.34;1719420;82;26417;-74
2021/06/14 10:42:50;;;;;;;3.73;2.27;;;;;;;25.26;51.93;100275.23;1774466;79;21071;-74
2021/06/14 10:45:19;;;;;;;3.27;2.20;;;;;;;25.36;52.23;100269.75;1782443;79;21515;-74
2021/06/14 10:47:47;;;;;;;2.90;2.37;;;;;;;25.58;52.32;100275.02;1790492;79;21045;-73
2021/06/14 10:50:26;;;;;;;3.10;2.30;;;;;;;25.82;50.61;100276.59;1781441;79;21084;-73
2021/06/14 10:52:55;;;;;;;2.80;2.00;;;;;;;25.83;50.83;100272.72;1759097;81;21115;-73
2021/06/14 10:55:32;;;;;;;5.23;2.40;;;;;;;25.76;51.58;100276.66;1775199;79;21137;-74
2021/06/14 10:57:59;;;;;;;3.93;2.33;;;;;;;25.72;52.00;100274.45;1784370;79;21097;-77
2021/06/14 11:00:34;;;;;;;4.37;2.20;;;;;;;25.67;51.14;100272.04;1774978;79;21092;-74
2021/06/14 11:03:10;;;;;;;3.17;2.00;;;;;;;25.68;50.89;100277.13;1715751;82;21100;-74
2021/06/14 11:05:47;;;;;;;2.87;2.03;;;;;;;25.75;51.45;100272.35;1708741;82;21976;-73
2021/06/14 11:08:21;;;;;;;2.60;1.80;;;;;;;25.98;50.63;100268.83;1750994;81;21052;-73
2021/06/14 11:11:07;;;;;;;3.33;2.00;;;;;;;26.33;49.66;100266.59;1744259;81;21086;-73
2021/06/14 11:13:32;;;;;;;2.73;1.90;;;;;;;26.63;48.72;100269.36;1733745;81;21051;-72
2021/06/14 11:16:02;;;;;;;3.20;2.10;;;;;;;26.63;46.42;100265.83;1738009;81;21002;-73
2021/06/14 11:18:31;;;;;;;3.35;2.17;;;;;;;26.41;48.09;100275.69;1792179;79;21505;-74
2021/06/14 11:21:19;;;;;;;3.93;2.50;;;;;;;26.20;49.31;100285.78;1741135;81;21014;-73
2021/06/14 11:23:48;;;;;;;3.20;2.20;;;;;;;26.06;50.04;100286.92;1745436;81;21152;-74
2021/06/14 11:26:30;;;;;;;3.03;2.20;;;;;;;26.03;50.36;100279.44;1742694;80;21057;-73
2021/06/14 11:28:56;;;;;;;2.63;1.83;;;;;;;26.13;50.53;100268.67;1740987;80;21430;-74
2021/06/14 11:31:30;;;;;;;3.00;2.07;;;;;;;26.36;49.50;100265.08;1773975;79;21126;-73
2021/06/14 11:34:06;;;;;;;2.87;1.83;;;;;;;26.58;49.60;100268.30;1722226;81;21081;-72
2021/06/14 11:36:34;;;;;;;3.30;1.70;;;;;;;26.71;48.11;100266.70;1738938;81;21624;-72
2021/06/14 11:39:15;;;;;;;2.60;1.90;;;;;;;26.78;48.08;100259.92;1724486;81;21085;-73
2021/06/14 11:41:42;;;;;;;2.40;1.90;;;;;;;26.88;47.52;100264.18;1706267;82;21046;-72
2021/06/14 11:44:30;;;;;;;3.30;2.30;;;;;;;27.04;48.00;100258.45;1738674;81;21157;-73
2021/06/14 11:47:16;;;;;;;2.67;1.80;;;;;;;27.26;47.59;100252.63;1740036;80;21105;-72